sensor_id;sensor_type;location;lat;lon;timestamp;pressure;altitude;pressure_sealevel;temperature;humidity
15308;BME280;7755;52.208;6.964;2023-11-19T00:03:35;100378.53;;;11.03;100.00
15308;BME280;7755;52.208;6.964;2023-11-19T00:07:44;100377.31;;;11.11;100.00
15308;BME280;7755;52.208;6.964;2023-11-19T00:12:03;100375.69;;;11.15;100.00
15308;BME280;7755;52.208;6.964;2023-11-19T00:16:26;100372.78;;;11.21;100.00
15308;BME280;7755;52.208;6.964;2023-11-19T00:20:48;100360.91;;;11.28;100.00
15308;BME280;7755;52.208;6.964;2023-11-19T00:25:10;100348.75;;;11.35;100.00
15308;BME280;7755;52.208;6.964;2023-11-19T00:29:36;100336.50;;;11.38;100.00
15308;BME280;7755;52.208;6.964;2023-11-19T00:33:56;100340.13;;;11.43;100.00
15308;BME280;7755;52.208;6.964;2023-11-19T00:38:15;100338.84;;;11.51;100.00
15308;BME280;7755;52.208;6.964;2023-11-19T00:42:33;100336.19;;;11.56;100.00
15308;BME280;7755;52.208;6.964;2023-11-19T00:47:02;100350.16;;;11.65;100.00
15308;BME280;7755;52.208;6.964;2023-11-19T00:51:21;100348.88;;;11.72;100.00
15308;BME280;7755;52.208;6.964;2023-11-19T00:55:48;100327.47;;;11.81;100.00
15308;BME280;7755;52.208;6.964;2023-11-19T01:00:14;100322.13;;;11.91;100.00
15308;BME280;7755;52.208;6.964;2023-11-19T01:04:44;100312.97;;;12.02;100.00
15308;BME280;7755;52.208;6.964;2023-11-19T01:09:10;100300.69;;;12.05;100.00
15308;BME280;7755;52.208;6.964;2023-11-19T01:13:40;100293.41;;;12.11;100.00
15308;BME280;7755;52.208;6.964;2023-11-19T01:17:46;100285.81;;;12.18;100.00
15308;BME280;7755;52.208;6.964;2023-11-19T01:21:57;100273.59;;;12.20;100.00
15308;BME280;7755;52.208;6.964;2023-11-19T01:30:50;100275.81;;;12.28;100.00
15308;BME280;7755;52.208;6.964;2023-11-19T01:35:02;100272.84;;;12.30;100.00
15308;BME280;7755;52.208;6.964;2023-11-19T01:39:11;100261.66;;;12.32;100.00
15308;BME280;7755;52.208;6.964;2023-11-19T01:43:33;100276.69;;;12.34;100.00
15308;BME280;7755;52.208;6.964;2023-11-19T01:47:39;100273.97;;;12.39;100.00
15308;BME280;7755;52.208;6.964;2023-11-19T01:51:45;100261.72;;;12.42;100.00
15308;BME280;7755;52.208;6.964;2023-11-19T01:55:55;100272.91;;;12.45;100.00
15308;BME280;7755;52.208;6.964;2023-11-19T02:00:03;100271.59;;;12.48;100.00
15308;BME280;7755;52.208;6.964;2023-11-19T02:04:33;100271.03;;;12.51;100.00
15308;BME280;7755;52.208;6.964;2023-11-19T02:08:40;100268.88;;;12.53;100.00
15308;BME280;7755;52.208;6.964;2023-11-19T02:13:11;100254.44;;;12.57;100.00
15308;BME280;7755;52.208;6.964;2023-11-19T02:17:27;100253.94;;;12.61;100.00
15308;BME280;7755;52.208;6.964;2023-11-19T02:21:33;100245.47;;;12.62;100.00
15308;BME280;7755;52.208;6.964;2023-11-19T02:25:38;100252.56;;;12.63;100.00
15308;BME280;7755;52.208;6.964;2023-11-19T02:29:49;100246.56;;;12.66;100.00
15308;BME280;7755;52.208;6.964;2023-11-19T02:33:55;100251.25;;;12.71;100.00
15308;BME280;7755;52.208;6.964;2023-11-19T02:38:02;100234.88;;;12.71;100.00
15308;BME280;7755;52.208;6.964;2023-11-19T02:42:08;100217.16;;;12.73;100.00
15308;BME280;7755;52.208;6.964;2023-11-19T02:46:18;100223.69;;;12.72;100.00
15308;BME280;7755;52.208;6.964;2023-11-19T02:50:23;100228.91;;;12.74;100.00
15308;BME280;7755;52.208;6.964;2023-11-19T02:54:30;100228.38;;;12.77;100.00
15308;BME280;7755;52.208;6.964;2023-11-19T02:58:42;100234.63;;;12.77;100.00
15308;BME280;7755;52.208;6.964;2023-11-19T03:02:59;100234.63;;;12.77;100.00
15308;BME280;7755;52.208;6.964;2023-11-19T03:07:12;100238.47;;;12.81;100.00
15308;BME280;7755;52.208;6.964;2023-11-19T03:11:17;100244.75;;;12.82;100.00
15308;BME280;7755;52.208;6.964;2023-11-19T03:15:45;100249.94;;;12.83;100.00
15308;BME280;7755;52.208;6.964;2023-11-19T03:20:16;100245.84;;;12.81;100.00
15308;BME280;7755;52.208;6.964;2023-11-19T03:24:22;100242.31;;;12.80;100.00
15308;BME280;7755;52.208;6.964;2023-11-19T03:28:28;100239.56;;;12.80;100.00
15308;BME280;7755;52.208;6.964;2023-11-19T03:32:33;100239.28;;;12.77;100.00
15308;BME280;7755;52.208;6.964;2023-11-19T03:36:40;100246.38;;;12.78;100.00
15308;BME280;7755;52.208;6.964;2023-11-19T03:40:45;100240.91;;;12.78;100.00
15308;BME280;7755;52.208;6.964;2023-11-19T03:44:51;100244.72;;;12.77;100.00
15308;BME280;7755;52.208;6.964;2023-11-19T03:48:56;100242.28;;;12.75;100.00
15308;BME280;7755;52.208;6.964;2023-11-19T03:53:06;100243.38;;;12.74;100.00
15308;BME280;7755;52.208;6.964;2023-11-19T03:57:11;100239.25;;;12.67;100.00
15308;BME280;7755;52.208;6.964;2023-11-19T04:01:17;100237.03;;;12.64;100.00
15308;BME280;7755;52.208;6.964;2023-11-19T04:05:24;100238.41;;;12.61;100.00
15308;BME280;7755;52.208;6.964;2023-11-19T04:09:31;100235.31;;;12.52;100.00
15308;BME280;7755;52.208;6.964;2023-11-19T04:13:39;100239.97;;;12.52;100.00
15308;BME280;7755;52.208;6.964;2023-11-19T04:17:44;100226.63;;;12.55;100.00
15308;BME280;7755;52.208;6.964;2023-11-19T04:21:49;100229.38;;;12.55;100.00
15308;BME280;7755;52.208;6.964;2023-11-19T04:25:56;100229.09;;;12.57;100.00
15308;BME280;7755;52.208;6.964;2023-11-19T04:30:12;100226.09;;;12.53;100.00
15308;BME280;7755;52.208;6.964;2023-11-19T04:34:20;100236.69;;;12.50;100.00
15308;BME280;7755;52.208;6.964;2023-11-19T04:38:25;100233.97;;;12.50;100.00
15308;BME280;7755;52.208;6.964;2023-11-19T04:42:34;100236.94;;;12.43;100.00
15308;BME280;7755;52.208;6.964;2023-11-19T04:46:38;100237.94;;;12.32;100.00
15308;BME280;7755;52.208;6.964;2023-11-19T04:50:45;100238.47;;;12.29;100.00
15308;BME280;7755;52.208;6.964;2023-11-19T04:54:50;100246.34;;;12.20;100.00
15308;BME280;7755;52.208;6.964;2023-11-19T04:58:57;100249.84;;;12.16;100.00
15308;BME280;7755;52.208;6.964;2023-11-19T05:03:03;100255.78;;;12.08;100.00
15308;BME280;7755;52.208;6.964;2023-11-19T05:07:08;100257.34;;;11.98;100.00
15308;BME280;7755;52.208;6.964;2023-11-19T05:11:13;100254.28;;;11.90;100.00
15308;BME280;7755;52.208;6.964;2023-11-19T05:15:22;100252.31;;;11.85;100.00
15308;BME280;7755;52.208;6.964;2023-11-19T05:19:27;100258.34;;;11.87;100.00
15308;BME280;7755;52.208;6.964;2023-11-19T05:23:32;100256.13;;;11.84;100.00
15308;BME280;7755;52.208;6.964;2023-11-19T05:27:37;100252.59;;;11.84;100.00
15308;BME280;7755;52.208;6.964;2023-11-19T05:31:46;100253.34;;;11.79;100.00
15308;BME280;7755;52.208;6.964;2023-11-19T05:35:51;100241.88;;;11.77;100.00
15308;BME280;7755;52.208;6.964;2023-11-19T05:39:56;100248.97;;;11.78;100.00
15308;BME280;7755;52.208;6.964;2023-11-19T05:44:02;100270.50;;;11.80;100.00
15308;BME280;7755;52.208;6.964;2023-11-19T05:48:09;100261.75;;;11.77;100.00
15308;BME280;7755;52.208;6.964;2023-11-19T05:52:14;100266.38;;;11.77;100.00
15308;BME280;7755;52.208;6.964;2023-11-19T05:56:19;100259.63;;;11.80;100.00
15308;BME280;7755;52.208;6.964;2023-11-19T06:00:25;100256.84;;;11.74;100.00
15308;BME280;7755;52.208;6.964;2023-11-19T06:04:32;100273.75;;;11.76;100.00
15308;BME280;7755;52.208;6.964;2023-11-19T06:08:37;100267.22;;;11.77;100.00
15308;BME280;7755;52.208;6.964;2023-11-19T06:12:42;100275.66;;;11.76;100.00
15308;BME280;7755;52.208;6.964;2023-11-19T06:16:48;100283.31;;;11.79;100.00
15308;BME280;7755;52.208;6.964;2023-11-19T06:20:56;100273.25;;;11.80;100.00
15308;BME280;7755;52.208;6.964;2023-11-19T06:25:01;100280.28;;;11.75;100.00
15308;BME280;7755;52.208;6.964;2023-11-19T06:29:09;100290.09;;;11.76;100.00
15308;BME280;7755;52.208;6.964;2023-11-19T06:33:20;100291.94;;;11.71;100.00
15308;BME280;7755;52.208;6.964;2023-11-19T06:37:28;100293.34;;;11.73;100.00
15308;BME280;7755;52.208;6.964;2023-11-19T06:41:33;100289.78;;;11.73;100.00
15308;BME280;7755;52.208;6.964;2023-11-19T06:45:40;100296.63;;;11.75;100.00
15308;BME280;7755;52.208;6.964;2023-11-19T06:49:45;100289.53;;;11.74;100.00
15308;BME280;7755;52.208;6.964;2023-11-19T06:53:52;100284.34;;;11.73;100.00
15308;BME280;7755;52.208;6.964;2023-11-19T06:57:59;100287.31;;;11.71;100.00
15308;BME280;7755;52.208;6.964;2023-11-19T07:02:05;100291.94;;;11.71;100.00
15308;BME280;7755;52.208;6.964;2023-11-19T07:06:10;100301.78;;;11.72;100.00
15308;BME280;7755;52.208;6.964;2023-11-19T07:10:18;100296.31;;;11.72;100.00
15308;BME280;7755;52.208;6.964;2023-11-19T07:14:23;100304.72;;;11.70;100.00
15308;BME280;7755;52.208;6.964;2023-11-19T07:18:30;100305.31;;;11.72;100.00
15308;BME280;7755;52.208;6.964;2023-11-19T07:22:37;100309.94;;;11.72;100.00
15308;BME280;7755;52.208;6.964;2023-11-19T07:26:47;100310.19;;;11.70;100.00
15308;BME280;7755;52.208;6.964;2023-11-19T07:30:51;100312.66;;;11.72;100.00
15308;BME280;7755;52.208;6.964;2023-11-19T07:34:57;100319.16;;;11.71;100.00
15308;BME280;7755;52.208;6.964;2023-11-19T07:39:03;100318.66;;;11.74;100.00
15308;BME280;7755;52.208;6.964;2023-11-19T07:43:11;100327.66;;;11.74;100.00
15308;BME280;7755;52.208;6.964;2023-11-19T07:47:15;100327.09;;;11.72;100.00
15308;BME280;7755;52.208;6.964;2023-11-19T07:51:20;100331.97;;;11.70;100.00
15308;BME280;7755;52.208;6.964;2023-11-19T07:55:25;100344.50;;;11.71;100.00
15308;BME280;7755;52.208;6.964;2023-11-19T07:59:36;100346.16;;;11.72;100.00
15308;BME280;7755;52.208;6.964;2023-11-19T08:03:41;100347.81;;;11.73;100.00
15308;BME280;7755;52.208;6.964;2023-11-19T08:08:00;100353.81;;;11.75;100.00
15308;BME280;7755;52.208;6.964;2023-11-19T08:12:06;100347.59;;;11.80;100.00
15308;BME280;7755;52.208;6.964;2023-11-19T08:16:14;100355.78;;;11.80;100.00
15308;BME280;7755;52.208;6.964;2023-11-19T08:20:19;100367.88;;;11.89;100.00
15308;BME280;7755;52.208;6.964;2023-11-19T08:24:24;100364.06;;;11.90;100.00
15308;BME280;7755;52.208;6.964;2023-11-19T08:28:30;100378.81;;;11.94;100.00
15308;BME280;7755;52.208;6.964;2023-11-19T08:32:39;100367.66;;;11.96;100.00
15308;BME280;7755;52.208;6.964;2023-11-19T08:36:44;100358.47;;;12.02;100.00
15308;BME280;7755;52.208;6.964;2023-11-19T08:40:49;100359.81;;;11.99;100.00
15308;BME280;7755;52.208;6.964;2023-11-19T08:44:54;100364.66;;;11.97;100.00
15308;BME280;7755;52.208;6.964;2023-11-19T08:49:01;100364.38;;;11.94;100.00
15308;BME280;7755;52.208;6.964;2023-11-19T08:53:11;100356.25;;;11.99;100.00
15308;BME280;7755;52.208;6.964;2023-11-19T08:57:18;100354.16;;;12.06;100.00
15308;BME280;7755;52.208;6.964;2023-11-19T09:01:22;100356.59;;;12.08;100.00
15308;BME280;7755;52.208;6.964;2023-11-19T09:05:30;100355.25;;;12.10;100.00
15308;BME280;7755;52.208;6.964;2023-11-19T09:09:35;100365.34;;;12.10;100.00
15308;BME280;7755;52.208;6.964;2023-11-19T09:13:41;100353.56;;;12.04;100.00
15308;BME280;7755;52.208;6.964;2023-11-19T09:17:47;100360.91;;;12.03;100.00
15308;BME280;7755;52.208;6.964;2023-11-19T09:21:54;100365.34;;;12.10;100.00
15308;BME280;7755;52.208;6.964;2023-11-19T09:26:02;100348.50;;;12.18;100.00
15308;BME280;7755;52.208;6.964;2023-11-19T09:30:08;100360.81;;;12.20;100.00
15308;BME280;7755;52.208;6.964;2023-11-19T09:34:15;100354.06;;;12.28;100.00
15308;BME280;7755;52.208;6.964;2023-11-19T09:38:22;100364.16;;;12.33;100.00
15308;BME280;7755;52.208;6.964;2023-11-19T09:42:27;100373.19;;;12.33;100.00
15308;BME280;7755;52.208;6.964;2023-11-19T09:46:33;100361.47;;;12.38;100.00
15308;BME280;7755;52.208;6.964;2023-11-19T09:50:39;100365.28;;;12.37;100.00
15308;BME280;7755;52.208;6.964;2023-11-19T09:54:47;100360.72;;;12.42;100.00
15308;BME280;7755;52.208;6.964;2023-11-19T09:58:52;100354.44;;;12.42;100.00
15308;BME280;7755;52.208;6.964;2023-11-19T10:02:58;100366.16;;;12.42;100.00
15308;BME280;7755;52.208;6.964;2023-11-19T10:07:05;100353.03;;;12.39;100.00
15308;BME280;7755;52.208;6.964;2023-11-19T10:11:22;100367.50;;;12.40;100.00
15308;BME280;7755;52.208;6.964;2023-11-19T10:15:48;100360.94;;;12.36;100.00
15308;BME280;7755;52.208;6.964;2023-11-19T10:19:55;100357.66;;;12.39;100.00
15308;BME280;7755;52.208;6.964;2023-11-19T10:24:02;100356.84;;;12.38;100.00
15308;BME280;7755;52.208;6.964;2023-11-19T10:28:15;100355.53;;;12.41;100.00
15308;BME280;7755;52.208;6.964;2023-11-19T10:32:30;100359.06;;;12.41;100.00
15308;BME280;7755;52.208;6.964;2023-11-19T10:36:53;100365.41;;;12.52;100.00
15308;BME280;7755;52.208;6.964;2023-11-19T10:40:58;100353.75;;;12.62;100.00
15308;BME280;7755;52.208;6.964;2023-11-19T10:45:24;100371.22;;;12.66;100.00
15308;BME280;7755;52.208;6.964;2023-11-19T10:49:29;100343.72;;;12.72;100.00
15308;BME280;7755;52.208;6.964;2023-11-19T10:53:37;100336.13;;;12.79;100.00
15308;BME280;7755;52.208;6.964;2023-11-19T10:57:47;100348.69;;;12.80;100.00
15308;BME280;7755;52.208;6.964;2023-11-19T11:02:09;100339.69;;;12.85;100.00
15308;BME280;7755;52.208;6.964;2023-11-19T11:06:15;100342.16;;;12.87;100.00
15308;BME280;7755;52.208;6.964;2023-11-19T11:10:22;100335.66;;;12.93;100.00
15308;BME280;7755;52.208;6.964;2023-11-19T11:14:30;100328.84;;;12.95;100.00
15308;BME280;7755;52.208;6.964;2023-11-19T11:18:40;100339.19;;;12.93;100.00
15308;BME280;7755;52.208;6.964;2023-11-19T11:22:54;100332.91;;;12.93;100.00
15308;BME280;7755;52.208;6.964;2023-11-19T11:27:29;100334.56;;;12.94;100.00
15308;BME280;7755;52.208;6.964;2023-11-19T11:31:51;100328.00;;;12.90;100.00
15308;BME280;7755;52.208;6.964;2023-11-19T11:36:11;100328.84;;;12.95;100.00
15308;BME280;7755;52.208;6.964;2023-11-19T11:40:19;100324.75;;;12.98;100.00
15308;BME280;7755;52.208;6.964;2023-11-19T11:49:08;100328.31;;;12.98;100.00
15308;BME280;7755;52.208;6.964;2023-11-19T11:53:29;100312.72;;;12.94;100.00
15308;BME280;7755;52.208;6.964;2023-11-19T11:57:39;100306.72;;;12.92;100.00
15308;BME280;7755;52.208;6.964;2023-11-19T12:01:57;100309.75;;;13.00;100.00
15308;BME280;7755;52.208;6.964;2023-11-19T12:06:03;100302.97;;;13.03;100.00
15308;BME280;7755;52.208;6.964;2023-11-19T12:10:13;100291.78;;;13.04;100.00
15308;BME280;7755;52.208;6.964;2023-11-19T12:14:59;100299.69;;;13.06;100.00
15308;BME280;7755;52.208;6.964;2023-11-19T12:19:08;100297.78;;;13.01;100.00
15308;BME280;7755;52.208;6.964;2023-11-19T12:23:14;100287.69;;;13.07;100.00
15308;BME280;7755;52.208;6.964;2023-11-19T12:27:22;100280.84;;;13.04;100.00
15308;BME280;7755;52.208;6.964;2023-11-19T12:31:28;100274.84;;;13.02;100.00
15308;BME280;7755;52.208;6.964;2023-11-19T12:35:38;100277.00;;;13.00;100.00
15308;BME280;7755;52.208;6.964;2023-11-19T12:39:48;100277.00;;;12.95;100.00
15308;BME280;7755;52.208;6.964;2023-11-19T12:44:15;100276.91;;;12.80;100.00
15308;BME280;7755;52.208;6.964;2023-11-19T12:48:25;100268.72;;;12.75;100.00
15308;BME280;7755;52.208;6.964;2023-11-19T12:52:30;100282.91;;;12.77;100.00
15308;BME280;7755;52.208;6.964;2023-11-19T12:56:36;100282.91;;;12.77;100.00
15308;BME280;7755;52.208;6.964;2023-11-19T13:00:46;100284.00;;;12.76;100.00
15308;BME280;7755;52.208;6.964;2023-11-19T13:04:51;100292.72;;;12.73;100.00
15308;BME280;7755;52.208;6.964;2023-11-19T13:13:58;100287.13;;;12.52;100.00
15308;BME280;7755;52.208;6.964;2023-11-19T13:18:37;100271.59;;;12.53;100.00
15308;BME280;7755;52.208;6.964;2023-11-19T13:22:54;100281.94;;;12.51;100.00
15308;BME280;7755;52.208;6.964;2023-11-19T13:27:20;100283.88;;;12.50;100.00
15308;BME280;7755;52.208;6.964;2023-11-19T13:31:38;100290.97;;;12.51;100.00
15308;BME280;7755;52.208;6.964;2023-11-19T13:35:56;100284.41;;;12.52;100.00
15308;BME280;7755;52.208;6.964;2023-11-19T13:40:04;100280.34;;;12.55;100.00
15308;BME280;7755;52.208;6.964;2023-11-19T13:44:12;100287.47;;;12.61;100.00
15308;BME280;7755;52.208;6.964;2023-11-19T13:48:17;100278.78;;;12.69;100.00
15308;BME280;7755;52.208;6.964;2023-11-19T13:52:27;100261.09;;;12.77;100.00
15308;BME280;7755;52.208;6.964;2023-11-19T13:56:33;100278.25;;;12.72;100.00
15308;BME280;7755;52.208;6.964;2023-11-19T14:00:44;100279.34;;;12.71;100.00
15308;BME280;7755;52.208;6.964;2023-11-19T14:05:12;100273.84;;;12.61;100.00
15308;BME280;7755;52.208;6.964;2023-11-19T14:09:37;100275.41;;;12.52;100.00
15308;BME280;7755;52.208;6.964;2023-11-19T14:13:55;100265.59;;;12.51;100.00
15308;BME280;7755;52.208;6.964;2023-11-19T14:18:08;100262.59;;;12.47;100.00
15308;BME280;7755;52.208;6.964;2023-11-19T14:22:21;100264.22;;;12.48;100.00
15308;BME280;7755;52.208;6.964;2023-11-19T14:26:51;100264.78;;;12.50;100.00
15308;BME280;7755;52.208;6.964;2023-11-19T14:31:18;100264.78;;;12.50;100.00
15308;BME280;7755;52.208;6.964;2023-11-19T14:35:45;100263.97;;;12.50;100.00
15308;BME280;7755;52.208;6.964;2023-11-19T14:40:07;100263.69;;;12.51;100.00
15308;BME280;7755;52.208;6.964;2023-11-19T14:44:22;100255.22;;;12.48;100.00
15308;BME280;7755;52.208;6.964;2023-11-19T14:48:45;100261.72;;;12.42;100.00
15308;BME280;7755;52.208;6.964;2023-11-19T14:53:03;100253.81;;;12.40;100.00
15308;BME280;7755;52.208;6.964;2023-11-19T14:57:29;100251.59;;;12.37;100.00
15308;BME280;7755;52.208;6.964;2023-11-19T15:01:58;100251.88;;;12.36;100.00
15308;BME280;7755;52.208;6.964;2023-11-19T15:06:23;100263.53;;;12.26;100.00
15308;BME280;7755;52.208;6.964;2023-11-19T15:15:16;100273.94;;;11.97;100.00
15308;BME280;7755;52.208;6.964;2023-11-19T15:19:57;100263.22;;;11.85;100.00
15308;BME280;7755;52.208;6.964;2023-11-19T15:24:03;100268.66;;;11.85;100.00
15308;BME280;7755;52.208;6.964;2023-11-19T15:28:23;100254.13;;;11.74;100.00
15308;BME280;7755;52.208;6.964;2023-11-19T15:32:44;100269.59;;;11.69;100.00
15308;BME280;7755;52.208;6.964;2023-11-19T15:37:09;100276.88;;;11.63;100.00
15308;BME280;7755;52.208;6.964;2023-11-19T15:41:39;100273.97;;;11.70;100.00
15308;BME280;7755;52.208;6.964;2023-11-19T15:46:05;100271.50;;;11.68;100.00
15308;BME280;7755;52.208;6.964;2023-11-19T15:50:32;100272.59;;;11.67;100.00
15308;BME280;7755;52.208;6.964;2023-11-19T15:54:59;100272.31;;;11.69;100.00
15308;BME280;7755;52.208;6.964;2023-11-19T15:59:16;100275.31;;;11.67;100.00
15308;BME280;7755;52.208;6.964;2023-11-19T16:03:41;100267.94;;;11.68;100.00
15308;BME280;7755;52.208;6.964;2023-11-19T16:08:08;100274.97;;;11.64;100.00
15308;BME280;7755;52.208;6.964;2023-11-19T16:12:37;100268.78;;;11.68;100.00
15308;BME280;7755;52.208;6.964;2023-11-19T16:16:57;100267.94;;;11.68;100.00
15308;BME280;7755;52.208;6.964;2023-11-19T16:21:11;100271.50;;;11.68;100.00
15308;BME280;7755;52.208;6.964;2023-11-19T16:25:33;100270.16;;;11.71;100.00
15308;BME280;7755;52.208;6.964;2023-11-19T16:29:57;100269.84;;;11.67;100.00
15308;BME280;7755;52.208;6.964;2023-11-19T16:34:25;100259.78;;;11.68;100.00
15308;BME280;7755;52.208;6.964;2023-11-19T16:38:51;100266.81;;;11.64;100.00
15308;BME280;7755;52.208;6.964;2023-11-19T16:43:37;100266.81;;;11.64;100.00
15308;BME280;7755;52.208;6.964;2023-11-19T16:48:06;100260.06;;;11.66;100.00
15308;BME280;7755;52.208;6.964;2023-11-19T16:52:35;100274.97;;;11.64;100.00
15308;BME280;7755;52.208;6.964;2023-11-19T16:56:56;100273.34;;;11.63;100.00
15308;BME280;7755;52.208;6.964;2023-11-19T17:01:16;100269.31;;;11.65;100.00
15308;BME280;7755;52.208;6.964;2023-11-19T17:05:24;100269.31;;;11.65;100.00
15308;BME280;7755;52.208;6.964;2023-11-19T17:09:29;100278.28;;;11.66;100.00
15308;BME280;7755;52.208;6.964;2023-11-19T17:13:41;100290.25;;;11.65;100.00
15308;BME280;7755;52.208;6.964;2023-11-19T17:17:47;100282.91;;;11.65;100.00
15308;BME280;7755;52.208;6.964;2023-11-19T17:21:55;100283.16;;;11.64;100.00
15308;BME280;7755;52.208;6.964;2023-11-19T17:26:06;100285.31;;;11.62;100.00
15308;BME280;7755;52.208;6.964;2023-11-19T17:30:24;100288.56;;;11.59;100.00
15308;BME280;7755;52.208;6.964;2023-11-19T17:34:44;100281.47;;;11.58;100.00
15308;BME280;7755;52.208;6.964;2023-11-19T17:38:57;100281.72;;;11.56;100.00
15308;BME280;7755;52.208;6.964;2023-11-19T17:43:06;100279.81;;;11.57;100.00
15308;BME280;7755;52.208;6.964;2023-11-19T17:47:17;100277.38;;;11.55;100.00
15308;BME280;7755;52.208;6.964;2023-11-19T17:51:23;100276.81;;;11.58;100.00
15308;BME280;7755;52.208;6.964;2023-11-19T17:55:30;100285.00;;;11.58;100.00
15308;BME280;7755;52.208;6.964;2023-11-19T17:59:38;100282.59;;;11.62;100.00
15308;BME280;7755;52.208;6.964;2023-11-19T18:03:44;100276.59;;;11.60;100.00
15308;BME280;7755;52.208;6.964;2023-11-19T18:07:49;100270.84;;;11.56;100.00
15308;BME280;7755;52.208;6.964;2023-11-19T18:12:12;100264.84;;;11.54;100.00
15308;BME280;7755;52.208;6.964;2023-11-19T18:16:18;100257.94;;;11.46;100.00
15308;BME280;7755;52.208;6.964;2023-11-19T18:20:25;100260.47;;;11.53;100.00
15308;BME280;7755;52.208;6.964;2023-11-19T18:24:30;100257.13;;;11.46;100.00
15308;BME280;7755;52.208;6.964;2023-11-19T18:28:58;100254.66;;;11.44;100.00
15308;BME280;7755;52.208;6.964;2023-11-19T18:33:21;100250.28;;;11.43;100.00
15308;BME280;7755;52.208;6.964;2023-11-19T18:37:41;100242.91;;;11.39;100.00
15308;BME280;7755;52.208;6.964;2023-11-19T18:42:04;100250.69;;;11.30;100.00
15308;BME280;7755;52.208;6.964;2023-11-19T18:46:12;100242.03;;;11.33;100.00
15308;BME280;7755;52.208;6.964;2023-11-19T18:50:19;100243.69;;;11.34;100.00
15308;BME280;7755;52.208;6.964;2023-11-19T18:54:25;100245.84;;;11.32;100.00
15308;BME280;7755;52.208;6.964;2023-11-19T18:58:36;100232.22;;;11.32;100.00
15308;BME280;7755;52.208;6.964;2023-11-19T19:02:44;100234.38;;;11.30;100.00
15308;BME280;7755;52.208;6.964;2023-11-19T19:06:54;100249.06;;;11.29;100.00
15308;BME280;7755;52.208;6.964;2023-11-19T19:15:50;100234.06;;;11.27;100.00
15308;BME280;7755;52.208;6.964;2023-11-19T19:20:13;100223.44;;;11.25;100.00
15308;BME280;7755;52.208;6.964;2023-11-19T19:24:18;100218.81;;;11.26;100.00
15308;BME280;7755;52.208;6.964;2023-11-19T19:28:39;100212.50;;;11.20;100.00
15308;BME280;7755;52.208;6.964;2023-11-19T19:32:58;100213.31;;;11.20;100.00
15308;BME280;7755;52.208;6.964;2023-11-19T19:37:17;100212.78;;;11.18;100.00
15308;BME280;7755;52.208;6.964;2023-11-19T19:41:24;100204.34;;;11.20;100.00
15308;BME280;7755;52.208;6.964;2023-11-19T19:45:29;100209.53;;;11.21;100.00
15308;BME280;7755;52.208;6.964;2023-11-19T19:49:36;100203.81;;;11.23;100.00
15308;BME280;7755;52.208;6.964;2023-11-19T19:53:45;100206.03;;;11.26;100.00
15308;BME280;7755;52.208;6.964;2023-11-19T19:57:54;100201.34;;;11.21;100.00
15308;BME280;7755;52.208;6.964;2023-11-19T20:01:59;100194.03;;;11.22;100.00
15308;BME280;7755;52.208;6.964;2023-11-19T20:06:06;100199.19;;;11.24;100.00
15308;BME280;7755;52.208;6.964;2023-11-19T20:10:22;100184.22;;;11.21;100.00
15308;BME280;7755;52.208;6.964;2023-11-19T20:14:41;100179.84;;;11.20;100.00
15308;BME280;7755;52.208;6.964;2023-11-19T20:19:02;100183.66;;;11.19;100.00
15308;BME280;7755;52.208;6.964;2023-11-19T20:23:24;100177.44;;;11.24;100.00
15308;BME280;7755;52.208;6.964;2023-11-19T20:27:41;100177.13;;;11.20;100.00
15308;BME280;7755;52.208;6.964;2023-11-19T20:31:46;100165.16;;;11.21;100.00
15308;BME280;7755;52.208;6.964;2023-11-19T20:35:53;100176.88;;;11.21;100.00
15308;BME280;7755;52.208;6.964;2023-11-19T20:40:00;100170.59;;;11.21;100.00
15308;BME280;7755;52.208;6.964;2023-11-19T20:44:10;100173.59;;;11.19;100.00
15308;BME280;7755;52.208;6.964;2023-11-19T20:48:15;100172.25;;;11.22;100.00
15308;BME280;7755;52.208;6.964;2023-11-19T20:52:21;100171.13;;;11.18;100.00
15308;BME280;7755;52.208;6.964;2023-11-19T20:56:32;100179.84;;;11.20;100.00
15308;BME280;7755;52.208;6.964;2023-11-19T21:00:47;100174.97;;;11.22;100.00
15308;BME280;7755;52.208;6.964;2023-11-19T21:05:08;100179.59;;;11.21;100.00
15308;BME280;7755;52.208;6.964;2023-11-19T21:09:32;100182.31;;;11.21;100.00
15308;BME280;7755;52.208;6.964;2023-11-19T21:13:54;100185.84;;;11.22;100.00
15308;BME280;7755;52.208;6.964;2023-11-19T21:18:14;100176.38;;;11.25;100.00
15308;BME280;7755;52.208;6.964;2023-11-19T21:22:27;100191.63;;;11.26;100.00
15308;BME280;7755;52.208;6.964;2023-11-19T21:26:47;100180.72;;;11.26;100.00
15308;BME280;7755;52.208;6.964;2023-11-19T21:31:06;100185.38;;;11.30;100.00
15308;BME280;7755;52.208;6.964;2023-11-19T21:35:30;100179.69;;;11.32;100.00
15308;BME280;7755;52.208;6.964;2023-11-19T21:39:56;100175.91;;;11.33;100.00
15308;BME280;7755;52.208;6.964;2023-11-19T21:44:24;100175.63;;;11.34;100.00
15308;BME280;7755;52.208;6.964;2023-11-19T21:48:51;100174.28;;;11.37;100.00
15308;BME280;7755;52.208;6.964;2023-11-19T21:53:21;100182.72;;;11.35;100.00
15308;BME280;7755;52.208;6.964;2023-11-19T21:57:47;100175.41;;;11.41;100.00
15308;BME280;7755;52.208;6.964;2023-11-19T22:01:53;100177.31;;;11.40;100.00
15308;BME280;7755;52.208;6.964;2023-11-19T22:06:20;100170.53;;;11.43;100.00
15308;BME280;7755;52.208;6.964;2023-11-19T22:10:52;100176.78;;;11.43;100.00
15308;BME280;7755;52.208;6.964;2023-11-19T22:15:21;100173.84;;;11.50;100.00
15308;BME280;7755;52.208;6.964;2023-11-19T22:19:41;100179.28;;;11.50;100.00
15308;BME280;7755;52.208;6.964;2023-11-19T22:23:55;100174.66;;;11.51;100.00
15308;BME280;7755;52.208;6.964;2023-11-19T22:28:03;100171.94;;;11.51;100.00